Wednesday, July 30, 2014
05:07 UTC
  |  Log In   |  Register Free
Airport Search:

Big Bear City Airport
(L35)

Big Bear City Airport Diagram
No Airport Diagram Available

FAA data valid effective July 24, 2014 until September 18, 2014 (unless otherwise noted).

 
 
 
 
 
 
 
 
 
 
 
 
 
 

Current Aviation Weather for Big Bear City Airport (L35)

The most recent METAR observation for KSBD was updated at: 1747 UTC
METAR Summary (Translated METAR)
KSBD
281747Z 23005KT 10SM FEW050 BKN150 29/02 A3009
KRIV
(12.9 nm SW from KSBD)
281756Z VRB03KT 10SM FEW140 BKN180 BKN250 29/11 A3011 RMK AO2A SLP180 T02930109 10293 20220 53002
TAF Summary (Translated TAF)
KRIV
(12.9 nm SW from KSBD)
3004/3110 VRB06KT 9999 FEW210 QNH2995INS BECMG 3020/3021 30012G18KT 9999 SCT210 QNH2992INS BECMG 3103/3104 VRB06KT 9999 FEW210 QNH2995INS TX36/3021Z TN20/3012Z
  Airport Weather Conditions for L35

Current weather conditions are
not available for L35


The nearest NOAA weather station
is at SBD, (21.4 nm SW from L35)
  
 Current Weather at SBD
73° F
Mostly Cloudy
Southwest winds at 8.1 mph
SBD NOAA Radar

Pressure: 29.98 in
Humidity: 36%
Wind: Southwest at 8.1 MPH (7 KT)
Dew Point: 44.6°F
Visibility: 10.00 mi


Airport Weather Forecast for L35

Translated METAR and TAF for KSBD
Translated METAR for KSBD (0500 UTC 30 July 2014)
found at http://aviationweather.gov/adds/metars/
 
METAR text: KSBD 300250Z 23007KT 10SM BKN200 23/07 A2998
Conditions at: KSBD (SAN BERNARDINO , CA, US) observed 0250 UTC 30 July 2014
Temperature: 23.0°C (73°F)
Dewpoint: 7.0°C (45°F) [RH = 36%]
Pressure (altimeter): 29.98 inches Hg (1015.3 mb)
Winds: from the SW (230 degrees) at 8 MPH (7 knots; 3.6 m/s)
Visibility: 10 or more miles (16+ km)
Ceiling: 20000 feet AGL
Clouds: broken clouds at 20000 feet AGL
Weather: no significant weather observed at this time
Translated TAF for KSBD

There is no translated TAF available for this airport

Find All Airport Services Find A Hotel Find A Rental Car Find A Golf Course Find A Restaurant $100 Hamburger



FBO's on the Field
FBO Company Facility Photos Services Transportation Aviation Fuel Prices: Prices include tax
Catering Weather Repair Courtesy Rental Type 100LL JetA JetA+ MOGAS 8087
 
Big Bear Airport

This FBO has not yet been rated
FS:Epic
Last Updated: Jul-25
Login to update fuel prices
SS:
Contact Big Bear AirportMore FBO Information
 
Add another FBO Facility Photos Catering Weather Repair Courtesy Rental Type 100LL JetA JetA+ MOGAS 8087
Services Transportation Aviation Fuel Prices: Prices include tax


GlobalAir.com Airport Resource Center model-print
model-print
model-print
model-print